Joseph Merrick Jones — WDF4882 — position and weather

sailwx.info

Track history (hours):
 
Tides and Currents Weather Stations Pressure Air Temp Water Temp Dewpoint Dewpoint Depression Visibility Wind Speed Wind Dir Waves Ship Positions

Joseph Merrick Jones

Owner: Canal Barge Company, Inc., Belle Chasse, LA. More information available from US FCC via Universal Licensing System and Coast Guard Vessel Documentation Center.

Last reported at 2018-Jan-20 08:01 UTC. Time now 2018-Jan-24 07:24 UTC.
Position N 33°10' W 091°05'.

Length 39 m; draft 3 m.

Type: Towing. MMSI: 367456840.

Date/timePositionNaut miles runAvg speedWind from/ knotsBaromVisibWave heightAir tempDewpointWater temp
2018-Jan-20 08:01N 33°10' W 091°05'0 4.2
2018-Jan-20 07:58N 33°10' W 091°05'19 2.8
2018-Jan-20 01:17N 32°51' W 091°07'2 4.3
2018-Jan-20 00:54N 32°50' W 091°09'2 3.9
2018-Jan-20 00:30N 32°48' W 091°09'2 3.9
2018-Jan-20 00:00N 32°47' W 091°09'7 1.5
2018-Jan-19 19:42N 32°40' W 091°07'1 4.3
2018-Jan-19 19:30N 32°40' W 091°08'2 4.4
2018-Jan-19 19:00N 32°38' W 091°09'2 4.4
2018-Jan-19 18:30N 32°36' W 091°08'2 4.6
2018-Jan-19 18:00N 32°34' W 091°06'2 4.1
2018-Jan-19 17:30N 32°32' W 091°06'3 5.2
2018-Jan-19 17:00N 32°30' W 091°07'3 5.3
2018-Jan-19 16:30N 32°27' W 091°05'3 5.0
2018-Jan-19 16:00N 32°26' W 091°03'2 4.7
2018-Jan-19 15:30N 32°25' W 091°00'2 3.8
2018-Jan-19 15:00N 32°24' W 090°60'2 4.5
2018-Jan-19 14:30N 32°21' W 090°60'3 5.5
2018-Jan-19 14:00N 32°21' W 090°57'2 4.5
2018-Jan-19 13:30N 32°20' W 090°54'2 4.7
2018-Jan-19 13:00N 32°18' W 090°55'3 5.0
2018-Jan-19 12:30N 32°16' W 090°58'2 4.4
2018-Jan-19 12:00N 32°14' W 090°59'2 4.7
2018-Jan-19 11:30N 32°12' W 090°59'2 4.5
2018-Jan-19 11:00N 32°10' W 091°00'2 4.6
2018-Jan-19 10:30N 32°08' W 091°01'2 4.1
2018-Jan-19 09:59N 32°07' W 091°03'2 4.9
2018-Jan-19 09:29N 32°08' W 091°06'2 3.9
2018-Jan-19 09:00N 32°06' W 091°06'3 4.6
2018-Jan-19 08:16N 32°03' W 091°03'1 5.0
2018-Jan-19 08:00N 32°02' W 091°04'1 0.9
2018-Jan-19 07:26N 32°02' W 091°04'0 0.0
2018-Jan-19 07:00N 32°02' W 091°04'0 0.0
2018-Jan-19 06:30N 32°02' W 091°04'0 0.0
2018-Jan-19 06:00N 32°02' W 091°04'0 0.0
2018-Jan-19 05:30N 32°02' W 091°04'0 0.0
2018-Jan-19 05:00N 32°02' W 091°04'0 0.0
2018-Jan-19 04:26N 32°02' W 091°04'0 0.0
2018-Jan-19 04:00N 32°02' W 091°04'0 0.0
2018-Jan-19 03:27N 32°02' W 091°04'0 0.0
2018-Jan-19 03:00N 32°02' W 091°04'0 0.0
2018-Jan-19 02:29N 32°02' W 091°04'0 0.0
2018-Jan-19 02:00N 32°02' W 091°04'0 0.0
2018-Jan-19 01:30N 32°02' W 091°04'1 1.5
2018-Jan-19 00:54N 32°01' W 091°05'  
2018-Jan-11 23:59N 38°35' W 090°12'4 8.9
2018-Jan-11 23:30N 38°39' W 090°11'3 3.8
2018-Jan-11 22:48N 38°42' W 090°11'0 1.5
2018-Jan-11 22:30N 38°43' W 090°11'2 4.3
2018-Jan-11 22:00N 38°44' W 090°09'2 4.3
2018-Jan-11 21:30N 38°46' W 090°08'3 5.4
2018-Jan-11 21:00N 38°49' W 090°07'0 0.4
2018-Jan-11 20:10N 38°49' W 090°07'0 0.1
2018-Jan-11 20:00N 38°49' W 090°07'0 0.3
2018-Jan-11 19:30N 38°49' W 090°07'0 0.6
2018-Jan-11 19:00N 38°49' W 090°07'2 3.7
2018-Jan-11 18:30N 38°51' W 090°07'2 3.4
2018-Jan-11 17:59N 38°52' W 090°09'0 0.1
2018-Jan-11 17:30N 38°52' W 090°09'0 0.2
2018-Jan-11 17:00N 38°52' W 090°09'0 0.0
2018-Jan-11 16:30N 38°52' W 090°09'1 1.1
2018-Jan-11 16:00N 38°53' W 090°10'2 4.5
2018-Jan-11 15:30N 38°54' W 090°12'1 1.9
2018-Jan-11 15:00N 38°54' W 090°13'0 0.0
2018-Jan-11 14:29N 38°54' W 090°13'0 0.0
2018-Jan-11 14:00N 38°54' W 090°13'0 0.0
2018-Jan-11 13:30N 38°54' W 090°13'0 0.1
2018-Jan-11 13:00N 38°54' W 090°13'0 0.1
2018-Jan-11 12:30N 38°54' W 090°13'0 0.1
2018-Jan-11 12:00N 38°54' W 090°13'0 0.1
2018-Jan-11 11:30N 38°54' W 090°13'0 0.0
2018-Jan-11 11:00N 38°54' W 090°13'0 0.0
2018-Jan-11 10:30N 38°54' W 090°13'0 0.0
2018-Jan-11 10:00N 38°54' W 090°13'0 0.0
2018-Jan-11 09:30N 38°54' W 090°13'0 0.0
2018-Jan-11 09:00N 38°54' W 090°13'0 0.0
2018-Jan-11 08:30N 38°54' W 090°13'0 0.2
2018-Jan-11 08:00N 38°54' W 090°13'0 0.1
2018-Jan-11 07:30N 38°54' W 090°13'0 0.1
2018-Jan-11 07:00N 38°54' W 090°13'0 0.8
2018-Jan-11 06:30N 38°55' W 090°13'3 5.4
2018-Jan-11 06:00N 38°55' W 090°17'3 6.2
2018-Jan-11 05:30N 38°56' W 090°20'3 6.3
2018-Jan-11 05:00N 38°58' W 090°24'4 7.1
2018-Jan-11 04:30N 38°58' W 090°28'3 5.7
2018-Jan-11 04:00N 38°57' W 090°32'3 6.3
2018-Jan-11 03:30N 39°00' W 090°34'3 5.8
2018-Jan-11 03:00N 39°03' W 090°35'3 5.0
2018-Jan-11 02:30N 39°05' W 090°36'3 5.8
2018-Jan-11 02:00N 39°08' W 090°37'  
Track history (hours):
 
Tides and Currents Weather Stations Pressure Air Temp Water Temp Dewpoint Dewpoint Depression Visibility Wind Speed Wind Dir Waves Ship Positions

Joseph Merrick Jones

Owner: Canal Barge Company, Inc., Belle Chasse, LA. More information available from US FCC via Universal Licensing System and Coast Guard Vessel Documentation Center.

Last reported at 2018-Jan-20 08:01 UTC. Time now 2018-Jan-24 07:24 UTC.
Position N 33°10' W 091°05'.

Length 39 m; draft 3 m.

Type: Towing. MMSI: 367456840.

Date/timePositionNaut miles runAvg speedWind from/ knotsBaromVisibWave heightAir tempDewpointWater temp
2018-Jan-20 08:01N 33°10' W 091°05'0 4.2
2018-Jan-20 07:58N 33°10' W 091°05'19 2.8
2018-Jan-20 01:17N 32°51' W 091°07'2 4.3
2018-Jan-20 00:54N 32°50' W 091°09'2 3.9
2018-Jan-20 00:30N 32°48' W 091°09'2 3.9
2018-Jan-20 00:00N 32°47' W 091°09'7 1.5
2018-Jan-19 19:42N 32°40' W 091°07'1 4.3
2018-Jan-19 19:30N 32°40' W 091°08'2 4.4
2018-Jan-19 19:00N 32°38' W 091°09'2 4.4
2018-Jan-19 18:30N 32°36' W 091°08'2 4.6
2018-Jan-19 18:00N 32°34' W 091°06'2 4.1
2018-Jan-19 17:30N 32°32' W 091°06'3 5.2
2018-Jan-19 17:00N 32°30' W 091°07'3 5.3
2018-Jan-19 16:30N 32°27' W 091°05'3 5.0
2018-Jan-19 16:00N 32°26' W 091°03'2 4.7
2018-Jan-19 15:30N 32°25' W 091°00'2 3.8
2018-Jan-19 15:00N 32°24' W 090°60'2 4.5
2018-Jan-19 14:30N 32°21' W 090°60'3 5.5
2018-Jan-19 14:00N 32°21' W 090°57'2 4.5
2018-Jan-19 13:30N 32°20' W 090°54'2 4.7
2018-Jan-19 13:00N 32°18' W 090°55'3 5.0
2018-Jan-19 12:30N 32°16' W 090°58'2 4.4
2018-Jan-19 12:00N 32°14' W 090°59'2 4.7
2018-Jan-19 11:30N 32°12' W 090°59'2 4.5
2018-Jan-19 11:00N 32°10' W 091°00'2 4.6
2018-Jan-19 10:30N 32°08' W 091°01'2 4.1
2018-Jan-19 09:59N 32°07' W 091°03'2 4.9
2018-Jan-19 09:29N 32°08' W 091°06'2 3.9
2018-Jan-19 09:00N 32°06' W 091°06'3 4.6
2018-Jan-19 08:16N 32°03' W 091°03'1 5.0
2018-Jan-19 08:00N 32°02' W 091°04'1 0.9
2018-Jan-19 07:26N 32°02' W 091°04'0 0.0
2018-Jan-19 07:00N 32°02' W 091°04'0 0.0
2018-Jan-19 06:30N 32°02' W 091°04'0 0.0
2018-Jan-19 06:00N 32°02' W 091°04'0 0.0
2018-Jan-19 05:30N 32°02' W 091°04'0 0.0
2018-Jan-19 05:00N 32°02' W 091°04'0 0.0
2018-Jan-19 04:26N 32°02' W 091°04'0 0.0
2018-Jan-19 04:00N 32°02' W 091°04'0 0.0
2018-Jan-19 03:27N 32°02' W 091°04'0 0.0
2018-Jan-19 03:00N 32°02' W 091°04'0 0.0
2018-Jan-19 02:29N 32°02' W 091°04'0 0.0
2018-Jan-19 02:00N 32°02' W 091°04'0 0.0
2018-Jan-19 01:30N 32°02' W 091°04'1 1.5
2018-Jan-19 00:54N 32°01' W 091°05'  
2018-Jan-11 23:59N 38°35' W 090°12'4 8.9
2018-Jan-11 23:30N 38°39' W 090°11'3 3.8
2018-Jan-11 22:48N 38°42' W 090°11'0 1.5
2018-Jan-11 22:30N 38°43' W 090°11'2 4.3
2018-Jan-11 22:00N 38°44' W 090°09'2 4.3
2018-Jan-11 21:30N 38°46' W 090°08'3 5.4
2018-Jan-11 21:00N 38°49' W 090°07'0 0.4
2018-Jan-11 20:10N 38°49' W 090°07'0 0.1
2018-Jan-11 20:00N 38°49' W 090°07'0 0.3
2018-Jan-11 19:30N 38°49' W 090°07'0 0.6
2018-Jan-11 19:00N 38°49' W 090°07'2 3.7
2018-Jan-11 18:30N 38°51' W 090°07'2 3.4
2018-Jan-11 17:59N 38°52' W 090°09'0 0.1
2018-Jan-11 17:30N 38°52' W 090°09'0 0.2
2018-Jan-11 17:00N 38°52' W 090°09'0 0.0
2018-Jan-11 16:30N 38°52' W 090°09'1 1.1
2018-Jan-11 16:00N 38°53' W 090°10'2 4.5
2018-Jan-11 15:30N 38°54' W 090°12'1 1.9
2018-Jan-11 15:00N 38°54' W 090°13'0 0.0
2018-Jan-11 14:29N 38°54' W 090°13'0 0.0
2018-Jan-11 14:00N 38°54' W 090°13'0 0.0
2018-Jan-11 13:30N 38°54' W 090°13'0 0.1
2018-Jan-11 13:00N 38°54' W 090°13'0 0.1
2018-Jan-11 12:30N 38°54' W 090°13'0 0.1
2018-Jan-11 12:00N 38°54' W 090°13'0 0.1
2018-Jan-11 11:30N 38°54' W 090°13'0 0.0
2018-Jan-11 11:00N 38°54' W 090°13'0 0.0
2018-Jan-11 10:30N 38°54' W 090°13'0 0.0
2018-Jan-11 10:00N 38°54' W 090°13'0 0.0
2018-Jan-11 09:30N 38°54' W 090°13'0 0.0
2018-Jan-11 09:00N 38°54' W 090°13'0 0.0
2018-Jan-11 08:30N 38°54' W 090°13'0 0.2
2018-Jan-11 08:00N 38°54' W 090°13'0 0.1
2018-Jan-11 07:30N 38°54' W 090°13'0 0.1
2018-Jan-11 07:00N 38°54' W 090°13'0 0.8
2018-Jan-11 06:30N 38°55' W 090°13'3 5.4
2018-Jan-11 06:00N 38°55' W 090°17'3 6.2
2018-Jan-11 05:30N 38°56' W 090°20'3 6.3
2018-Jan-11 05:00N 38°58' W 090°24'4 7.1
2018-Jan-11 04:30N 38°58' W 090°28'3 5.7
2018-Jan-11 04:00N 38°57' W 090°32'3 6.3
2018-Jan-11 03:30N 39°00' W 090°34'3 5.8
2018-Jan-11 03:00N 39°03' W 090°35'3 5.0
2018-Jan-11 02:30N 39°05' W 090°36'3 5.8
2018-Jan-11 02:00N 39°08' W 090°37'  

Dump ship's entire track history